Time;durP1;ratioP1;P1;durP2;ratioP2;P2;SDS_P1;SDS_P2;PMS_P1;PMS_P2;Temp;Humidity;BMP_temperature;BMP_pressure;BME280_temperature;BME280_humidity;BME280_pressure;Samples;Min_cycle;Max_cycle;Signal;HPM_P1;HPM_P2
2022/01/26 00:39:09;;;;;;;;;;;;;;;;;;;;;
2022/01/26 00:48:49;;;;;;;55.53;19.73;;;;;;;;;;5975170;24;20099;-78
2022/01/26 05:47:06;;;;;;;25.35;11.50;;;;;;;;;;5633948;25;20158;-77
2022/01/26 05:56:11;;;;;;;39.10;14.77;;;;;;;;;;5583160;25;20115;-77
2022/01/26 05:58:55;;;;;;;29.75;13.80;;;;;;;;;;5609834;25;20038;-77
2022/01/26 07:10:41;;;;;;;84.40;20.83;;;;;;;;;;5784563;24;20495;-77
2022/01/26 07:22:02;;;;;;;37.17;16.27;;;;;;;;;;5979810;24;20042;-77
2022/01/26 07:56:26;;;;;;;45.33;17.48;;;;;;;;;;5937634;23;20358;-86
2022/01/26 07:58:53;;;;;;;129.38;23.33;;;;;;;;;;6183611;23;20027;-87
2022/01/26 08:01:20;;;;;;;62.03;19.95;;;;;;;;;;6183057;23;20028;-87
2022/01/26 08:03:47;;;;;;;58.63;18.13;;;;;;;;;;6183330;23;20071;-87
2022/01/26 08:06:17;;;;;;;46.08;16.85;;;;;;;;;;6182233;23;20095;-87
2022/01/26 08:08:44;;;;;;;42.35;17.98;;;;;;;;;;6182477;23;20021;-86
2022/01/26 08:14:17;;;;;;;37.53;16.05;;;;;;;;;;6166299;23;20866;-87
2022/01/26 08:16:48;;;;;;;54.28;18.73;;;;;;;;;;6182713;23;20345;-87
2022/01/26 08:19:16;;;;;;;44.20;18.63;;;;;;;;;;6182550;23;20100;-87
2022/01/26 08:21:50;;;;;;;123.28;24.15;;;;;;;;;;6182654;23;20056;-87
2022/01/26 08:24:55;;;;;;;46.03;17.67;;;;;;;;;;6182784;23;20021;-87
2022/01/26 08:30:51;;;;;;;53.65;18.55;;;;;;;;;;6103262;23;20788;-87
2022/01/26 08:33:27;;;;;;;56.65;18.25;;;;;;;;;;6121102;23;20029;-87
2022/01/26 08:35:56;;;;;;;50.05;20.70;;;;;;;;;;6120192;23;20100;-87
2022/01/26 08:45:04;;;;;;;49.25;21.42;;;;;;;;;;6034048;23;20042;-87
2022/01/26 08:47:39;;;;;;;59.65;17.45;;;;;;;;;;6026644;23;20043;-87
2022/01/26 08:50:13;;;;;;;55.43;20.10;;;;;;;;;;6029847;23;20030;-87
2022/01/26 08:52:40;;;;;;;49.15;18.55;;;;;;;;;;6032959;23;20022;-87
2022/01/26 08:55:08;;;;;;;48.05;19.70;;;;;;;;;;6033560;23;20534;-87
2022/01/26 08:57:34;;;;;;;62.70;22.75;;;;;;;;;;6032612;23;20031;-87
2022/01/26 09:00:01;;;;;;;72.50;23.02;;;;;;;;;;6033401;23;20481;-87
2022/01/26 09:02:32;;;;;;;47.30;20.27;;;;;;;;;;6033329;23;20607;-86
2022/01/26 09:05:04;;;;;;;56.50;20.13;;;;;;;;;;6035113;23;20025;-87
2022/01/26 09:07:30;;;;;;;48.70;20.77;;;;;;;;;;6061435;23;20015;-87
2022/01/26 09:10:00;;;;;;;67.78;20.05;;;;;;;;;;6062709;23;20019;-87
2022/01/26 09:12:28;;;;;;;52.63;20.48;;;;;;;;;;6062181;23;20094;-87
2022/01/26 09:14:56;;;;;;;49.58;19.90;;;;;;;;;;6061343;23;20019;-87
2022/01/26 09:17:23;;;;;;;49.90;20.75;;;;;;;;;;6061622;23;20421;-88
2022/01/26 09:19:52;;;;;;;56.53;20.77;;;;;;;;;;6062043;23;20021;-87
2022/01/26 09:25:09;;;;;;;73.18;22.30;;;;;;;;;;6181932;23;20117;-87
2022/01/26 09:27:36;;;;;;;51.40;19.42;;;;;;;;;;6181882;23;20363;-87
2022/01/26 09:30:04;;;;;;;73.53;22.30;;;;;;;;;;6182481;23;20027;-87
2022/01/26 09:32:31;;;;;;;59.65;20.30;;;;;;;;;;6181434;23;20020;-87
2022/01/26 09:34:58;;;;;;;72.13;22.00;;;;;;;;;;6181260;23;20016;-87
2022/01/26 09:37:26;;;;;;;53.65;20.55;;;;;;;;;;6180815;23;20521;-87
2022/01/26 09:39:54;;;;;;;51.30;21.60;;;;;;;;;;6181456;23;20090;-87
2022/01/26 09:42:22;;;;;;;48.20;20.77;;;;;;;;;;6186860;23;20021;-90
2022/01/26 09:44:49;;;;;;;51.28;22.92;;;;;;;;;;6183659;23;20017;-89
2022/01/26 09:47:16;;;;;;;50.03;21.27;;;;;;;;;;6181827;23;20068;-89
2022/01/26 09:49:42;;;;;;;50.97;22.15;;;;;;;;;;6181116;23;20088;-89
2022/01/26 09:52:20;;;;;;;54.33;24.05;;;;;;;;;;6181115;23;20410;-89
2022/01/26 09:54:48;;;;;;;51.63;23.30;;;;;;;;;;6182098;23;20032;-89
2022/01/26 09:57:15;;;;;;;51.58;23.27;;;;;;;;;;6181343;23;20101;-89
2022/01/26 09:59:42;;;;;;;52.95;21.73;;;;;;;;;;6181665;23;20036;-89
2022/01/26 10:02:09;;;;;;;53.33;23.42;;;;;;;;;;6181701;23;20028;-89
2022/01/26 10:04:40;;;;;;;57.65;24.35;;;;;;;;;;6181907;23;20025;-89
2022/01/26 10:19:37;;;;;;;48.05;23.00;;;;;;;;;;6181816;23;20521;-90
2022/01/26 10:22:17;;;;;;;57.60;23.20;;;;;;;;;;6181473;23;20024;-90
2022/01/26 10:24:46;;;;;;;55.75;22.38;;;;;;;;;;6180556;23;20508;-90
2022/01/26 10:27:39;;;;;;;55.15;23.30;;;;;;;;;;6155831;23;20060;-89
2022/01/26 10:33:39;;;;;;;51.63;22.55;;;;;;;;;;6119382;23;20026;-89
2022/01/26 10:39:05;;;;;;;58.05;26.13;;;;;;;;;;6118194;23;20053;-90
2022/01/26 10:41:37;;;;;;;56.90;26.15;;;;;;;;;;6119461;23;20032;-90
2022/01/26 10:44:12;;;;;;;55.22;25.90;;;;;;;;;;6119199;23;20022;-90
2022/01/26 10:46:44;;;;;;;57.40;25.73;;;;;;;;;;6095991;23;20367;-90
2022/01/26 10:52:04;;;;;;;56.30;25.25;;;;;;;;;;6097142;23;20049;-91
2022/01/26 10:54:37;;;;;;;58.75;26.33;;;;;;;;;;6116103;23;20017;-91
2022/01/26 10:57:08;;;;;;;55.75;24.08;;;;;;;;;;6099843;23;20033;-90
2022/01/26 10:59:41;;;;;;;53.95;23.75;;;;;;;;;;6147111;23;20022;-90
2022/01/26 11:02:30;;;;;;;52.35;25.52;;;;;;;;;;6180834;23;20021;-91
2022/01/26 11:08:00;;;;;;;49.17;23.63;;;;;;;;;;6180468;23;20482;-91
2022/01/26 11:16:31;;;;;;;51.28;25.58;;;;;;;;;;6179500;23;20024;-92
2022/01/26 11:19:24;;;;;;;53.33;25.55;;;;;;;;;;6181321;23;20028;-91
2022/01/26 11:37:05;;;;;;;45.53;22.17;;;;;;;;;;6211057;23;20096;-92
2022/01/26 15:50:41;;;;;;;33.60;18.77;;;;;;;;;;6244708;23;20056;-92
2022/01/26 16:04:18;;;;;;;40.42;20.42;;;;;;;;;;6244683;23;20152;-93
2022/01/26 16:06:41;;;;;;;46.08;20.02;;;;;;;;;;6150556;23;20030;-93
2022/01/26 16:12:56;;;;;;;34.78;17.17;;;;;;;;;;6148962;23;20073;-93
2022/01/26 16:27:48;;;;;;;39.47;19.43;;;;;;;;;;6150097;23;20036;-92
2022/01/26 20:19:39;;;;;;;53.38;23.73;;;;;;;;;;6210644;22;20334;-92
2022/01/26 22:16:37;;;;;;;39.97;16.15;;;;;;;;;;6236962;22;20024;-91
2022/01/26 22:19:05;;;;;;;41.08;16.42;;;;;;;;;;6238333;23;20568;-91
2022/01/26 22:21:42;;;;;;;48.00;16.92;;;;;;;;;;6238590;23;20016;-91
2022/01/26 22:24:12;;;;;;;38.72;14.88;;;;;;;;;;6237965;23;20086;-91
2022/01/26 22:26:42;;;;;;;42.05;17.75;;;;;;;;;;6237888;23;20020;-90
2022/01/26 22:29:12;;;;;;;46.88;17.85;;;;;;;;;;6238526;23;20016;-90
2022/01/26 22:31:43;;;;;;;37.92;16.58;;;;;;;;;;6239069;23;20062;-91
2022/01/26 22:34:10;;;;;;;40.95;18.25;;;;;;;;;;6238112;23;20063;-91
2022/01/26 22:36:40;;;;;;;41.33;15.93;;;;;;;;;;6239124;23;20024;-91
2022/01/26 22:39:08;;;;;;;42.80;17.65;;;;;;;;;;6211667;23;20023;-91
2022/01/26 22:41:35;;;;;;;49.60;18.67;;;;;;;;;;6238329;23;20074;-91
2022/01/26 22:44:11;;;;;;;41.08;18.42;;;;;;;;;;6239668;23;20461;-91
2022/01/26 22:46:43;;;;;;;45.60;18.10;;;;;;;;;;6240249;23;20027;-91
2022/01/26 22:49:10;;;;;;;44.60;18.90;;;;;;;;;;6238038;23;20020;-90
2022/01/26 22:51:55;;;;;;;46.60;19.85;;;;;;;;;;6237930;23;20035;-91
2022/01/26 22:54:28;;;;;;;46.17;18.30;;;;;;;;;;6237909;23;20454;-90
2022/01/26 22:56:58;;;;;;;43.80;17.88;;;;;;;;;;6239218;23;20074;-91
2022/01/26 22:59:31;;;;;;;42.95;18.08;;;;;;;;;;6213808;23;20012;-91
2022/01/26 23:05:18;;;;;;;40.47;16.92;;;;;;;;;;6241589;23;20030;-91
2022/01/26 23:07:48;;;;;;;47.40;17.27;;;;;;;;;;6239894;23;20094;-91
2022/01/26 23:10:19;;;;;;;51.63;20.70;;;;;;;;;;6213458;23;20048;-91
2022/01/26 23:12:46;;;;;;;46.63;20.00;;;;;;;;;;6241287;23;20024;-92
2022/01/26 23:15:13;;;;;;;48.75;18.13;;;;;;;;;;6239405;22;20461;-91
2022/01/26 23:18:02;;;;;;;51.22;18.45;;;;;;;;;;6241163;23;20027;-91
2022/01/26 23:20:29;;;;;;;43.75;17.25;;;;;;;;;;6213862;23;20397;-91
2022/01/26 23:23:03;;;;;;;43.10;17.67;;;;;;;;;;6239383;23;20036;-91
2022/01/26 23:25:36;;;;;;;45.97;18.52;;;;;;;;;;6240834;23;20027;-91
2022/01/26 23:28:20;;;;;;;50.95;19.88;;;;;;;;;;6214604;23;20027;-92
2022/01/26 23:31:04;;;;;;;53.10;20.63;;;;;;;;;;6193934;23;20020;-91
